sensor_id;sensor_type;location;lat;lon;timestamp;pressure;altitude;pressure_sealevel;temperature;humidity
65666;BME280;52365;47.464;18.976;2023-08-06T00:00:20;98488.69;;;21.17;83.63
65666;BME280;52365;47.464;18.976;2023-08-06T00:00:41;98485.38;;;21.19;84.25
65666;BME280;52365;47.464;18.976;2023-08-06T00:01:02;98481.94;;;21.68;83.18
65666;BME280;52365;47.464;18.976;2023-08-06T00:01:23;98488.41;;;21.80;82.45
65666;BME280;52365;47.464;18.976;2023-08-06T00:01:46;98486.03;;;22.02;81.53
65666;BME280;52365;47.464;18.976;2023-08-06T00:02:07;98491.66;;;21.86;80.90
65666;BME280;52365;47.464;18.976;2023-08-06T00:02:28;98483.97;;;21.85;80.88
65666;BME280;52365;47.464;18.976;2023-08-06T00:02:49;98483.56;;;22.14;80.46
65666;BME280;52365;47.464;18.976;2023-08-06T00:03:10;98484.69;;;22.28;79.53
65666;BME280;52365;47.464;18.976;2023-08-06T00:03:31;98480.66;;;21.69;80.18
65666;BME280;52365;47.464;18.976;2023-08-06T00:03:52;98478.81;;;21.89;80.60
65666;BME280;52365;47.464;18.976;2023-08-06T00:04:13;98481.03;;;21.91;80.41
65666;BME280;52365;47.464;18.976;2023-08-06T00:04:34;98476.56;;;21.78;80.84
65666;BME280;52365;47.464;18.976;2023-08-06T00:04:55;98481.47;;;21.79;80.65
65666;BME280;52365;47.464;18.976;2023-08-06T00:05:16;98480.03;;;21.53;80.87
65666;BME280;52365;47.464;18.976;2023-08-06T00:05:42;98473.22;;;21.62;81.29
65666;BME280;52365;47.464;18.976;2023-08-06T00:06:06;98481.47;;;21.79;81.07
65666;BME280;52365;47.464;18.976;2023-08-06T00:06:27;98480.22;;;21.98;80.53
65666;BME280;52365;47.464;18.976;2023-08-06T00:06:48;98475.22;;;22.21;79.89
65666;BME280;52365;47.464;18.976;2023-08-06T00:07:09;98473.97;;;22.40;78.96
65666;BME280;52365;47.464;18.976;2023-08-06T00:07:30;98468.75;;;22.61;77.91
65666;BME280;52365;47.464;18.976;2023-08-06T00:07:51;98478.25;;;22.77;76.80
65666;BME280;52365;47.464;18.976;2023-08-06T00:08:12;98480.00;;;22.82;76.19
65666;BME280;52365;47.464;18.976;2023-08-06T00:08:33;98464.91;;;22.91;75.66
65666;BME280;52365;47.464;18.976;2023-08-06T00:08:54;98477.75;;;22.88;75.58
65666;BME280;52365;47.464;18.976;2023-08-06T00:09:15;98469.16;;;23.02;75.06
65666;BME280;52365;47.464;18.976;2023-08-06T00:09:36;98479.47;;;23.11;74.61
65666;BME280;52365;47.464;18.976;2023-08-06T00:09:52;98469.37;;;23.14;74.37
65666;BME280;52365;47.464;18.976;2023-08-06T00:10:14;98479.06;;;23.15;74.19
65666;BME280;52365;47.464;18.976;2023-08-06T00:10:35;98477.50;;;23.21;73.95
65666;BME280;52365;47.464;18.976;2023-08-06T00:10:56;98480.38;;;23.14;73.92
65666;BME280;52365;47.464;18.976;2023-08-06T00:11:17;98473.88;;;23.19;73.97
65666;BME280;52365;47.464;18.976;2023-08-06T00:11:37;98476.72;;;23.11;74.12
65666;BME280;52365;47.464;18.976;2023-08-06T00:11:58;98475.16;;;22.91;74.38
65666;BME280;52365;47.464;18.976;2023-08-06T00:12:19;98475.97;;;22.83;75.10
65666;BME280;52365;47.464;18.976;2023-08-06T00:12:40;98478.72;;;23.01;75.03
65666;BME280;52365;47.464;18.976;2023-08-06T00:13:02;98475.13;;;23.08;74.69
65666;BME280;52365;47.464;18.976;2023-08-06T00:13:22;98480.66;;;22.91;74.77
65666;BME280;52365;47.464;18.976;2023-08-06T00:13:43;98475.66;;;22.97;75.05
65666;BME280;52365;47.464;18.976;2023-08-06T00:14:04;98475.06;;;22.98;74.96
65666;BME280;52365;47.464;18.976;2023-08-06T00:14:25;98475.53;;;23.04;74.82
65666;BME280;52365;47.464;18.976;2023-08-06T00:14:50;98472.31;;;22.98;74.88
65666;BME280;52365;47.464;18.976;2023-08-06T00:15:11;98477.44;;;23.11;74.69
65666;BME280;52365;47.464;18.976;2023-08-06T00:15:32;98479.50;;;23.21;74.24
65666;BME280;52365;47.464;18.976;2023-08-06T00:15:53;98475.13;;;23.08;74.12
65666;BME280;52365;47.464;18.976;2023-08-06T00:16:14;98475.69;;;23.06;74.44
65666;BME280;52365;47.464;18.976;2023-08-06T00:16:35;98479.94;;;23.17;74.29
65666;BME280;52365;47.464;18.976;2023-08-06T00:16:56;98482.44;;;23.23;74.05
65666;BME280;52365;47.464;18.976;2023-08-06T00:17:17;98476.03;;;23.20;74.00
65666;BME280;52365;47.464;18.976;2023-08-06T00:17:38;98479.69;;;23.23;73.95
65666;BME280;52365;47.464;18.976;2023-08-06T00:17:59;98476.94;;;23.23;73.87
65666;BME280;52365;47.464;18.976;2023-08-06T00:18:20;98473.81;;;23.09;74.09
65666;BME280;52365;47.464;18.976;2023-08-06T00:18:42;98475.34;;;22.93;74.59
65666;BME280;52365;47.464;18.976;2023-08-06T00:19:03;98473.00;;;22.72;75.32
65666;BME280;52365;47.464;18.976;2023-08-06T00:19:24;98471.31;;;22.76;75.80
65666;BME280;52365;47.464;18.976;2023-08-06T00:19:45;98480.19;;;22.84;75.87
65666;BME280;52365;47.464;18.976;2023-08-06T00:20:06;98476.06;;;22.93;75.38
65666;BME280;52365;47.464;18.976;2023-08-06T00:20:28;98474.69;;;22.84;75.54
65666;BME280;52365;47.464;18.976;2023-08-06T00:20:49;98465.31;;;22.87;75.57
65666;BME280;52365;47.464;18.976;2023-08-06T00:21:05;98466.25;;;23.00;75.37
65666;BME280;52365;47.464;18.976;2023-08-06T00:21:26;98466.97;;;23.00;75.13
65666;BME280;52365;47.464;18.976;2023-08-06T00:21:47;98466.38;;;22.92;75.15
65666;BME280;52365;47.464;18.976;2023-08-06T00:22:08;98468.78;;;22.88;75.23
65666;BME280;52365;47.464;18.976;2023-08-06T00:22:29;98469.44;;;22.79;75.47
65666;BME280;52365;47.464;18.976;2023-08-06T00:22:50;98470.00;;;22.77;75.70
65666;BME280;52365;47.464;18.976;2023-08-06T00:23:11;98471.31;;;22.76;75.77
65666;BME280;52365;47.464;18.976;2023-08-06T00:23:32;98462.03;;;22.72;75.96
65666;BME280;52365;47.464;18.976;2023-08-06T00:23:53;98466.78;;;22.71;76.21
65666;BME280;52365;47.464;18.976;2023-08-06T00:24:14;98460.81;;;22.65;76.29
65666;BME280;52365;47.464;18.976;2023-08-06T00:24:35;98460.22;;;22.57;76.64
65666;BME280;52365;47.464;18.976;2023-08-06T00:24:56;98466.50;;;22.50;76.95
65666;BME280;52365;47.464;18.976;2023-08-06T00:25:18;98459.56;;;22.49;77.16
65666;BME280;52365;47.464;18.976;2023-08-06T00:25:39;98461.41;;;22.46;77.29
65666;BME280;52365;47.464;18.976;2023-08-06T00:26:00;98465.06;;;22.49;77.42
65666;BME280;52365;47.464;18.976;2023-08-06T00:26:21;98469.41;;;22.52;77.49
65666;BME280;52365;47.464;18.976;2023-08-06T00:26:42;98465.28;;;22.43;77.76
65666;BME280;52365;47.464;18.976;2023-08-06T00:27:24;98474.84;;;22.25;78.32
65666;BME280;52365;47.464;18.976;2023-08-06T00:27:45;98474.28;;;22.26;78.41
65666;BME280;52365;47.464;18.976;2023-08-06T00:28:06;98476.94;;;22.34;78.17
65666;BME280;52365;47.464;18.976;2023-08-06T00:28:27;98473.62;;;22.18;78.43
65666;BME280;52365;47.464;18.976;2023-08-06T00:28:48;98476.06;;;22.14;78.81
65666;BME280;52365;47.464;18.976;2023-08-06T00:29:09;98479.41;;;22.05;78.96
65666;BME280;52365;47.464;18.976;2023-08-06T00:29:30;98475.47;;;22.16;78.96
65666;BME280;52365;47.464;18.976;2023-08-06T00:29:52;98477.97;;;22.38;78.46
65666;BME280;52365;47.464;18.976;2023-08-06T00:30:13;98485.66;;;22.40;77.83
65666;BME280;52365;47.464;18.976;2023-08-06T00:30:34;98476.94;;;22.34;77.63
65666;BME280;52365;47.464;18.976;2023-08-06T00:30:55;98483.16;;;22.34;77.71
65666;BME280;52365;47.464;18.976;2023-08-06T00:31:17;98483.87;;;22.52;77.48
65666;BME280;52365;47.464;18.976;2023-08-06T00:31:38;98483.22;;;22.61;76.99
65666;BME280;52365;47.464;18.976;2023-08-06T00:31:59;98475.53;;;22.60;76.67
65666;BME280;52365;47.464;18.976;2023-08-06T00:32:21;98476.75;;;22.67;76.58
65666;BME280;52365;47.464;18.976;2023-08-06T00:32:42;98478.81;;;22.76;76.22
65666;BME280;52365;47.464;18.976;2023-08-06T00:33:03;98476.78;;;22.94;75.50
65666;BME280;52365;47.464;18.976;2023-08-06T00:33:24;98477.03;;;23.52;74.02
65666;BME280;52365;47.464;18.976;2023-08-06T00:33:45;98477.00;;;23.89;72.25
65666;BME280;52365;47.464;18.976;2023-08-06T00:34:06;98471.53;;;23.61;71.70
65666;BME280;52365;47.464;18.976;2023-08-06T00:34:27;98465.97;;;23.32;72.49
65666;BME280;52365;47.464;18.976;2023-08-06T00:34:48;98477.06;;;23.25;73.14
65666;BME280;52365;47.464;18.976;2023-08-06T00:35:12;98473.81;;;23.09;73.63
65666;BME280;52365;47.464;18.976;2023-08-06T00:35:34;98472.19;;;22.96;74.19
65666;BME280;52365;47.464;18.976;2023-08-06T00:35:55;98469.84;;;22.93;74.67
65666;BME280;52365;47.464;18.976;2023-08-06T00:36:16;98472.72;;;22.95;74.92
65666;BME280;52365;47.464;18.976;2023-08-06T00:36:37;98471.28;;;22.94;74.85
65666;BME280;52365;47.464;18.976;2023-08-06T00:36:58;98470.50;;;22.83;74.98
65666;BME280;52365;47.464;18.976;2023-08-06T00:37:19;98465.41;;;22.80;75.30
65666;BME280;52365;47.464;18.976;2023-08-06T00:37:40;98469.81;;;22.66;75.56
65666;BME280;52365;47.464;18.976;2023-08-06T00:38:02;98463.81;;;22.59;75.89
65666;BME280;52365;47.464;18.976;2023-08-06T00:38:23;98466.97;;;22.56;75.99
65666;BME280;52365;47.464;18.976;2023-08-06T00:38:44;98457.97;;;22.28;76.85
65666;BME280;52365;47.464;18.976;2023-08-06T00:39:05;98466.50;;;21.98;77.98
65666;BME280;52365;47.464;18.976;2023-08-06T00:39:27;98467.91;;;21.81;79.08
65666;BME280;52365;47.464;18.976;2023-08-06T00:39:48;98461.69;;;21.63;80.07
65666;BME280;52365;47.464;18.976;2023-08-06T00:40:09;98468.41;;;21.70;80.54
65666;BME280;52365;47.464;18.976;2023-08-06T00:40:30;98460.16;;;21.70;80.72
65666;BME280;52365;47.464;18.976;2023-08-06T00:40:51;98468.00;;;21.74;80.90
65666;BME280;52365;47.464;18.976;2023-08-06T00:41:12;98467.81;;;21.72;80.92
65666;BME280;52365;47.464;18.976;2023-08-06T00:41:33;98461.87;;;21.83;80.83
65666;BME280;52365;47.464;18.976;2023-08-06T00:41:54;98466.12;;;21.76;81.01
65666;BME280;52365;47.464;18.976;2023-08-06T00:42:15;98450.31;;;21.67;81.42
65666;BME280;52365;47.464;18.976;2023-08-06T00:42:41;98458.88;;;21.71;81.34
65666;BME280;52365;47.464;18.976;2023-08-06T00:43:02;98459.53;;;21.79;81.16
65666;BME280;52365;47.464;18.976;2023-08-06T00:43:23;98452.63;;;21.96;80.71
65666;BME280;52365;47.464;18.976;2023-08-06T00:43:44;98462.31;;;21.97;80.53
65666;BME280;52365;47.464;18.976;2023-08-06T00:44:05;98454.44;;;22.18;79.97
65666;BME280;52365;47.464;18.976;2023-08-06T00:44:26;98447.50;;;22.34;79.20
65666;BME280;52365;47.464;18.976;2023-08-06T00:44:47;98449.72;;;22.46;78.46
65666;BME280;52365;47.464;18.976;2023-08-06T00:45:08;98449.06;;;22.55;77.93
65666;BME280;52365;47.464;18.976;2023-08-06T00:45:29;98451.81;;;22.37;77.90
65666;BME280;52365;47.464;18.976;2023-08-06T00:45:51;98452.78;;;22.50;78.01
65666;BME280;52365;47.464;18.976;2023-08-06T00:46:12;98445.44;;;22.52;77.72
65666;BME280;52365;47.464;18.976;2023-08-06T00:46:33;98454.88;;;22.42;77.63
65666;BME280;52365;47.464;18.976;2023-08-06T00:46:55;98456.78;;;22.22;78.26
65666;BME280;52365;47.464;18.976;2023-08-06T00:47:16;98454.97;;;22.34;78.35
65666;BME280;52365;47.464;18.976;2023-08-06T00:47:37;98444.63;;;22.42;78.20
65666;BME280;52365;47.464;18.976;2023-08-06T00:48:00;98440.72;;;22.62;77.59
65666;BME280;52365;47.464;18.976;2023-08-06T00:48:21;98449.03;;;22.72;76.81
65666;BME280;52365;47.464;18.976;2023-08-06T00:48:43;98451.31;;;22.66;76.77
65666;BME280;52365;47.464;18.976;2023-08-06T00:49:04;98437.22;;;22.79;76.52
65666;BME280;52365;47.464;18.976;2023-08-06T00:49:25;98438.91;;;22.92;76.03
65666;BME280;52365;47.464;18.976;2023-08-06T00:49:46;98449.66;;;23.07;75.34
65666;BME280;52365;47.464;18.976;2023-08-06T00:50:08;98443.34;;;23.15;74.86
65666;BME280;52365;47.464;18.976;2023-08-06T00:50:29;98446.13;;;23.34;74.09
65666;BME280;52365;47.464;18.976;2023-08-06T00:50:50;98447.34;;;23.41;73.47
65666;BME280;52365;47.464;18.976;2023-08-06T00:51:11;98443.25;;;23.32;73.40
65666;BME280;52365;47.464;18.976;2023-08-06T00:51:33;98446.63;;;23.40;72.98
65666;BME280;52365;47.464;18.976;2023-08-06T00:51:55;98446.16;;;23.44;72.69
65666;BME280;52365;47.464;18.976;2023-08-06T00:52:17;98444.00;;;23.42;72.62
65666;BME280;52365;47.464;18.976;2023-08-06T00:52:38;98445.87;;;23.40;72.58
65666;BME280;52365;47.464;18.976;2023-08-06T00:52:59;98441.75;;;23.21;72.94
65666;BME280;52365;47.464;18.976;2023-08-06T00:53:21;98437.66;;;23.12;73.41
65666;BME280;52365;47.464;18.976;2023-08-06T00:53:42;98439.37;;;23.08;73.82
65666;BME280;52365;47.464;18.976;2023-08-06T00:54:03;98433.47;;;23.11;74.00
65666;BME280;52365;47.464;18.976;2023-08-06T00:54:24;98440.63;;;23.24;73.68
65666;BME280;52365;47.464;18.976;2023-08-06T00:54:47;98440.50;;;23.32;73.17
65666;BME280;52365;47.464;18.976;2023-08-06T00:55:08;98432.09;;;23.30;72.87
65666;BME280;52365;47.464;18.976;2023-08-06T00:55:29;98438.00;;;23.26;73.04
65666;BME280;52365;47.464;18.976;2023-08-06T00:55:51;98434.12;;;23.29;72.84
65666;BME280;52365;47.464;18.976;2023-08-06T00:56:12;98435.12;;;23.24;72.96
65666;BME280;52365;47.464;18.976;2023-08-06T00:56:34;98442.38;;;23.29;72.86
65666;BME280;52365;47.464;18.976;2023-08-06T00:56:56;98437.91;;;23.34;72.54
65666;BME280;52365;47.464;18.976;2023-08-06T00:57:18;98430.91;;;23.14;72.56
65666;BME280;52365;47.464;18.976;2023-08-06T00:57:41;98426.34;;;22.99;73.30
65666;BME280;52365;47.464;18.976;2023-08-06T00:58:02;98429.59;;;22.87;73.90
65666;BME280;52365;47.464;18.976;2023-08-06T00:58:23;98435.97;;;22.63;74.55
65666;BME280;52365;47.464;18.976;2023-08-06T00:58:45;98428.12;;;22.59;75.20
65666;BME280;52365;47.464;18.976;2023-08-06T00:59:07;98431.50;;;22.68;75.47
65666;BME280;52365;47.464;18.976;2023-08-06T00:59:29;98419.22;;;22.69;75.55
65666;BME280;52365;47.464;18.976;2023-08-06T00:59:52;98420.84;;;22.72;75.53
65666;BME280;52365;47.464;18.976;2023-08-06T01:00:14;98421.66;;;22.65;75.59
65666;BME280;52365;47.464;18.976;2023-08-06T01:00:35;98423.72;;;22.47;75.79
65666;BME280;52365;47.464;18.976;2023-08-06T01:00:56;98417.41;;;22.54;75.90
65666;BME280;52365;47.464;18.976;2023-08-06T01:01:17;98408.28;;;22.51;76.06
65666;BME280;52365;47.464;18.976;2023-08-06T01:01:38;98409.53;;;22.41;76.19
65666;BME280;52365;47.464;18.976;2023-08-06T01:01:59;98418.06;;;22.45;76.45
65666;BME280;52365;47.464;18.976;2023-08-06T01:02:20;98409.59;;;22.33;76.50
65666;BME280;52365;47.464;18.976;2023-08-06T01:02:41;98414.31;;;22.23;76.79
65666;BME280;52365;47.464;18.976;2023-08-06T01:03:02;98411.00;;;22.24;77.07
65666;BME280;52365;47.464;18.976;2023-08-06T01:03:23;98415.34;;;22.27;77.16
65666;BME280;52365;47.464;18.976;2023-08-06T01:03:44;98410.97;;;22.42;76.92
65666;BME280;52365;47.464;18.976;2023-08-06T01:04:05;98410.59;;;22.28;77.09
65666;BME280;52365;47.464;18.976;2023-08-06T01:04:23;98413.56;;;22.40;77.13
65666;BME280;52365;47.464;18.976;2023-08-06T01:04:44;98414.59;;;22.44;76.97
65666;BME280;52365;47.464;18.976;2023-08-06T01:05:05;98413.56;;;22.40;77.02
65666;BME280;52365;47.464;18.976;2023-08-06T01:05:26;98412.22;;;22.31;77.05
65666;BME280;52365;47.464;18.976;2023-08-06T01:05:47;98410.19;;;22.31;77.13
65666;BME280;52365;47.464;18.976;2023-08-06T01:06:09;98407.22;;;22.20;77.46
65666;BME280;52365;47.464;18.976;2023-08-06T01:08:54;98407.31;;;22.83;75.71
65666;BME280;52365;47.464;18.976;2023-08-06T01:10:57;98416.22;;;23.48;71.90
65666;BME280;52365;47.464;18.976;2023-08-06T01:13:46;98417.91;;;23.99;69.39
65666;BME280;52365;47.464;18.976;2023-08-06T01:14:28;98415.13;;;23.70;70.18
65666;BME280;52365;47.464;18.976;2023-08-06T01:15:02;98406.41;;;23.45;71.17
65666;BME280;52365;47.464;18.976;2023-08-06T01:15:29;98404.72;;;23.22;72.15
65666;BME280;52365;47.464;18.976;2023-08-06T01:15:55;98396.34;;;23.20;72.59
65666;BME280;52365;47.464;18.976;2023-08-06T01:16:20;98398.34;;;23.10;73.05
65666;BME280;52365;47.464;18.976;2023-08-06T01:16:41;98407.19;;;23.18;73.01
65666;BME280;52365;47.464;18.976;2023-08-06T01:17:04;98403.69;;;23.83;71.94
65666;BME280;52365;47.464;18.976;2023-08-06T01:17:26;98393.69;;;24.56;69.08
65666;BME280;52365;47.464;18.976;2023-08-06T01:17:47;98395.41;;;25.02;66.71
65666;BME280;52365;47.464;18.976;2023-08-06T01:18:10;98391.28;;;25.44;64.72
65666;BME280;52365;47.464;18.976;2023-08-06T01:18:31;98388.53;;;24.81;64.97
65666;BME280;52365;47.464;18.976;2023-08-06T01:18:52;98392.97;;;24.26;66.70
65666;BME280;52365;47.464;18.976;2023-08-06T01:19:17;98390.97;;;23.98;67.95
65666;BME280;52365;47.464;18.976;2023-08-06T01:19:39;98391.84;;;23.71;69.14
65666;BME280;52365;47.464;18.976;2023-08-06T01:19:59;98393.37;;;23.45;70.19
65666;BME280;52365;47.464;18.976;2023-08-06T01:20:21;98389.06;;;24.29;69.06
65666;BME280;52365;47.464;18.976;2023-08-06T01:20:42;98392.13;;;23.95;68.62
65666;BME280;52365;47.464;18.976;2023-08-06T01:21:03;98387.19;;;23.74;69.21
65666;BME280;52365;47.464;18.976;2023-08-06T01:21:24;98391.56;;;24.06;68.87
65666;BME280;52365;47.464;18.976;2023-08-06T01:21:45;98397.62;;;23.75;68.99
65666;BME280;52365;47.464;18.976;2023-08-06T01:22:06;98383.34;;;23.30;69.98
65666;BME280;52365;47.464;18.976;2023-08-06T01:22:27;98386.94;;;23.23;71.08
65666;BME280;52365;47.464;18.976;2023-08-06T01:22:48;98387.66;;;23.14;71.57
65666;BME280;52365;47.464;18.976;2023-08-06T01:23:09;98387.66;;;23.14;71.92
65666;BME280;52365;47.464;18.976;2023-08-06T01:23:30;98379.22;;;23.02;72.04
65666;BME280;52365;47.464;18.976;2023-08-06T01:23:51;98384.84;;;22.77;72.85
65666;BME280;52365;47.464;18.976;2023-08-06T01:24:12;98375.59;;;22.73;73.16
65666;BME280;52365;47.464;18.976;2023-08-06T01:24:33;98377.87;;;22.67;73.64
65666;BME280;52365;47.464;18.976;2023-08-06T01:24:55;98385.91;;;22.55;73.90
65666;BME280;52365;47.464;18.976;2023-08-06T01:25:16;98387.94;;;22.54;74.46
65666;BME280;52365;47.464;18.976;2023-08-06T01:27:44;98376.13;;;22.34;74.88
65666;BME280;52365;47.464;18.976;2023-08-06T01:28:19;98377.81;;;22.30;75.82
65666;BME280;52365;47.464;18.976;2023-08-06T01:29:57;98387.75;;;22.25;76.45
65666;BME280;52365;47.464;18.976;2023-08-06T01:30:30;98378.69;;;22.32;76.35
65666;BME280;52365;47.464;18.976;2023-08-06T01:30:59;98384.19;;;22.32;76.13
65666;BME280;52365;47.464;18.976;2023-08-06T01:31:35;98386.84;;;22.40;76.01
65666;BME280;52365;47.464;18.976;2023-08-06T01:31:57;98388.19;;;22.49;75.64
65666;BME280;52365;47.464;18.976;2023-08-06T01:32:20;98390.63;;;22.45;75.62
65666;BME280;52365;47.464;18.976;2023-08-06T01:32:47;98394.19;;;22.37;75.60
65666;BME280;52365;47.464;18.976;2023-08-06T01:33:14;98401.44;;;22.43;75.77
65666;BME280;52365;47.464;18.976;2023-08-06T01:33:40;98386.47;;;22.09;75.93
65666;BME280;52365;47.464;18.976;2023-08-06T01:34:07;98391.38;;;22.28;76.27
65666;BME280;52365;47.464;18.976;2023-08-06T01:34:31;98395.75;;;22.31;76.07
65666;BME280;52365;47.464;18.976;2023-08-06T01:35:16;98393.50;;;22.47;75.75
65666;BME280;52365;47.464;18.976;2023-08-06T01:35:38;98390.75;;;22.47;75.29
65666;BME280;52365;47.464;18.976;2023-08-06T01:36:00;98399.94;;;22.32;75.42
65666;BME280;52365;47.464;18.976;2023-08-06T01:36:22;98396.16;;;22.27;75.82
65666;BME280;52365;47.464;18.976;2023-08-06T01:36:43;98390.44;;;22.43;75.60
65666;BME280;52365;47.464;18.976;2023-08-06T01:37:05;98396.38;;;22.66;74.88
65666;BME280;52365;47.464;18.976;2023-08-06T01:37:28;98396.00;;;22.79;74.06
65666;BME280;52365;47.464;18.976;2023-08-06T01:37:50;98396.81;;;22.90;73.37
65666;BME280;52365;47.464;18.976;2023-08-06T01:38:11;98396.00;;;22.79;73.30
65666;BME280;52365;47.464;18.976;2023-08-06T01:38:32;98397.91;;;22.86;73.14
65666;BME280;52365;47.464;18.976;2023-08-06T01:38:53;98392.75;;;22.91;72.89
65666;BME280;52365;47.464;18.976;2023-08-06T01:39:14;98399.38;;;22.87;72.65
65666;BME280;52365;47.464;18.976;2023-08-06T01:39:35;98388.50;;;22.80;72.85
65666;BME280;52365;47.464;18.976;2023-08-06T01:39:57;98402.59;;;22.94;72.81
65666;BME280;52365;47.464;18.976;2023-08-06T01:40:18;98398.97;;;22.64;73.49
65666;BME280;52365;47.464;18.976;2023-08-06T01:40:39;98403.31;;;22.67;73.68
65666;BME280;52365;47.464;18.976;2023-08-06T01:41:00;98396.31;;;22.83;73.31
65666;BME280;52365;47.464;18.976;2023-08-06T01:41:21;98398.34;;;22.83;72.97
65666;BME280;52365;47.464;18.976;2023-08-06T01:41:42;98399.59;;;22.72;73.27
65666;BME280;52365;47.464;18.976;2023-08-06T01:42:03;98397.81;;;22.67;73.47
65666;BME280;52365;47.464;18.976;2023-08-06T01:42:24;98398.88;;;22.72;73.48
65666;BME280;52365;47.464;18.976;2023-08-06T01:42:45;98396.22;;;22.64;73.65
65666;BME280;52365;47.464;18.976;2023-08-06T01:43:06;98400.00;;;22.69;73.74
65666;BME280;52365;47.464;18.976;2023-08-06T01:43:27;98405.78;;;22.46;74.02
65666;BME280;52365;47.464;18.976;2023-08-06T01:43:48;98402.78;;;22.51;74.12
65666;BME280;52365;47.464;18.976;2023-08-06T01:44:10;98398.06;;;22.34;74.59
65666;BME280;52365;47.464;18.976;2023-08-06T01:44:30;98398.50;;;22.31;74.89
65666;BME280;52365;47.464;18.976;2023-08-06T01:44:51;98401.53;;;22.35;74.96
65666;BME280;52365;47.464;18.976;2023-08-06T01:45:12;98395.94;;;22.43;74.82
65666;BME280;52365;47.464;18.976;2023-08-06T01:45:34;98397.41;;;22.44;74.72
65666;BME280;52365;47.464;18.976;2023-08-06T01:45:55;98395.25;;;22.07;75.29
65666;BME280;52365;47.464;18.976;2023-08-06T01:46:16;98399.87;;;22.22;75.61
65666;BME280;52365;47.464;18.976;2023-08-06T01:46:36;98403.59;;;22.17;75.66
65666;BME280;52365;47.464;18.976;2023-08-06T01:46:57;98393.31;;;22.35;75.47
65666;BME280;52365;47.464;18.976;2023-08-06T01:47:18;98398.38;;;22.38;75.11
65666;BME280;52365;47.464;18.976;2023-08-06T01:47:39;98397.81;;;22.40;75.01
65666;BME280;52365;47.464;18.976;2023-08-06T01:48:00;98401.25;;;22.58;74.58
65666;BME280;52365;47.464;18.976;2023-08-06T01:48:21;98397.88;;;22.77;73.81
65666;BME280;52365;47.464;18.976;2023-08-06T01:48:42;98391.97;;;22.80;73.33
65666;BME280;52365;47.464;18.976;2023-08-06T01:49:03;98392.34;;;22.67;73.40
65666;BME280;52365;47.464;18.976;2023-08-06T01:49:24;98387.16;;;22.71;73.54
65666;BME280;52365;47.464;18.976;2023-08-06T01:49:45;98395.03;;;22.84;73.21
65666;BME280;52365;47.464;18.976;2023-08-06T01:50:07;98394.50;;;22.96;72.68
65666;BME280;52365;47.464;18.976;2023-08-06T01:50:28;98392.06;;;23.00;72.27
65666;BME280;52365;47.464;18.976;2023-08-06T01:50:49;98391.50;;;23.01;71.97
65666;BME280;52365;47.464;18.976;2023-08-06T01:51:10;98386.56;;;23.00;71.92
65666;BME280;52365;47.464;18.976;2023-08-06T01:51:31;98389.78;;;23.06;71.82
65666;BME280;52365;47.464;18.976;2023-08-06T01:51:51;98387.72;;;22.97;71.62
65666;BME280;52365;47.464;18.976;2023-08-06T01:52:12;98382.78;;;22.95;71.94
65666;BME280;52365;47.464;18.976;2023-08-06T01:52:33;98381.78;;;23.00;71.70
65666;BME280;52365;47.464;18.976;2023-08-06T01:52:54;98380.56;;;22.84;72.09
65666;BME280;52365;47.464;18.976;2023-08-06T01:53:15;98379.38;;;22.50;72.85
65666;BME280;52365;47.464;18.976;2023-08-06T01:53:36;98379.84;;;22.56;73.42
65666;BME280;52365;47.464;18.976;2023-08-06T01:53:57;98373.69;;;22.66;73.46
65666;BME280;52365;47.464;18.976;2023-08-06T01:54:18;98372.28;;;22.74;73.31
65666;BME280;52365;47.464;18.976;2023-08-06T01:54:39;98374.91;;;22.82;72.87
65666;BME280;52365;47.464;18.976;2023-08-06T01:55:00;98382.16;;;22.87;72.51
65666;BME280;52365;47.464;18.976;2023-08-06T01:55:21;98365.59;;;22.95;72.06
65666;BME280;52365;47.464;18.976;2023-08-06T01:55:42;98370.78;;;22.91;71.99
65666;BME280;52365;47.464;18.976;2023-08-06T01:56:08;98377.87;;;22.94;71.91
65666;BME280;52365;47.464;18.976;2023-08-06T01:56:29;98364.44;;;22.98;71.79
65666;BME280;52365;47.464;18.976;2023-08-06T01:56:50;98373.59;;;23.10;71.38
65666;BME280;52365;47.464;18.976;2023-08-06T01:57:11;98373.75;;;23.12;71.11
65666;BME280;52365;47.464;18.976;2023-08-06T01:57:32;98369.97;;;23.07;71.36
65666;BME280;52365;47.464;18.976;2023-08-06T01:57:53;98369.00;;;23.22;70.71
65666;BME280;52365;47.464;18.976;2023-08-06T01:58:14;98363.78;;;23.17;70.62
65666;BME280;52365;47.464;18.976;2023-08-06T01:58:35;98365.09;;;23.16;70.69
65666;BME280;52365;47.464;18.976;2023-08-06T01:58:56;98367.69;;;23.14;70.68
65666;BME280;52365;47.464;18.976;2023-08-06T01:59:17;98366.81;;;23.11;70.82
65666;BME280;52365;47.464;18.976;2023-08-06T01:59:38;98362.75;;;23.12;70.78
65666;BME280;52365;47.464;18.976;2023-08-06T01:59:59;98363.34;;;23.10;70.86
65666;BME280;52365;47.464;18.976;2023-08-06T02:00:20;98364.47;;;23.07;71.02
65666;BME280;52365;47.464;18.976;2023-08-06T02:00:41;98359.72;;;22.81;71.22
65666;BME280;52365;47.464;18.976;2023-08-06T02:01:02;98361.44;;;22.76;71.94
65666;BME280;52365;47.464;18.976;2023-08-06T02:01:23;98357.88;;;22.83;72.00
65666;BME280;52365;47.464;18.976;2023-08-06T02:01:45;98357.81;;;22.74;72.03
65666;BME280;52365;47.464;18.976;2023-08-06T02:02:06;98362.78;;;22.85;71.96
65666;BME280;52365;47.464;18.976;2023-08-06T02:02:26;98354.91;;;22.72;71.97
65666;BME280;52365;47.464;18.976;2023-08-06T02:02:47;98350.38;;;22.57;72.41
65666;BME280;52365;47.464;18.976;2023-08-06T02:03:08;98350.97;;;22.65;72.71
65666;BME280;52365;47.464;18.976;2023-08-06T02:03:29;98357.41;;;22.77;72.42
65666;BME280;52365;47.464;18.976;2023-08-06T02:03:50;98354.13;;;22.88;72.11